sensor_id;sensor_type;location;lat;lon;timestamp;P1;durP1;ratioP1;P2;durP2;ratioP2
4533;SDS011;2279;51.448;7.306;2023-04-12T00:00:34;6.07;;;2.30;;
4533;SDS011;2279;51.448;7.306;2023-04-12T00:03:03;2.43;;;1.80;;
4533;SDS011;2279;51.448;7.306;2023-04-12T00:05:30;5.63;;;2.83;;
4533;SDS011;2279;51.448;7.306;2023-04-12T00:07:56;7.80;;;1.73;;
4533;SDS011;2279;51.448;7.306;2023-04-12T00:10:24;6.90;;;4.00;;
4533;SDS011;2279;51.448;7.306;2023-04-12T00:12:50;2.03;;;1.83;;
4533;SDS011;2279;51.448;7.306;2023-04-12T00:15:16;9.63;;;2.70;;
4533;SDS011;2279;51.448;7.306;2023-04-12T00:17:43;7.93;;;2.63;;
4533;SDS011;2279;51.448;7.306;2023-04-12T00:20:09;4.13;;;2.63;;
4533;SDS011;2279;51.448;7.306;2023-04-12T00:22:36;4.23;;;2.43;;
4533;SDS011;2279;51.448;7.306;2023-04-12T00:25:02;4.27;;;2.30;;
4533;SDS011;2279;51.448;7.306;2023-04-12T00:27:28;7.00;;;2.60;;
4533;SDS011;2279;51.448;7.306;2023-04-12T00:29:55;3.57;;;1.97;;
4533;SDS011;2279;51.448;7.306;2023-04-12T00:32:21;2.60;;;1.77;;
4533;SDS011;2279;51.448;7.306;2023-04-12T00:34:46;3.57;;;2.00;;
4533;SDS011;2279;51.448;7.306;2023-04-12T00:37:12;5.30;;;2.23;;
4533;SDS011;2279;51.448;7.306;2023-04-12T00:39:38;5.20;;;2.30;;
4533;SDS011;2279;51.448;7.306;2023-04-12T00:42:04;4.33;;;2.10;;
4533;SDS011;2279;51.448;7.306;2023-04-12T00:44:33;2.40;;;1.83;;
4533;SDS011;2279;51.448;7.306;2023-04-12T00:47:00;6.10;;;2.13;;
4533;SDS011;2279;51.448;7.306;2023-04-12T00:49:27;2.47;;;2.10;;
4533;SDS011;2279;51.448;7.306;2023-04-12T00:52:03;6.07;;;2.20;;
4533;SDS011;2279;51.448;7.306;2023-04-12T00:54:29;5.30;;;2.20;;
4533;SDS011;2279;51.448;7.306;2023-04-12T00:56:56;4.73;;;2.73;;
4533;SDS011;2279;51.448;7.306;2023-04-12T00:59:22;5.30;;;2.80;;
4533;SDS011;2279;51.448;7.306;2023-04-12T01:01:48;2.50;;;1.80;;
4533;SDS011;2279;51.448;7.306;2023-04-12T01:04:14;3.93;;;1.67;;
4533;SDS011;2279;51.448;7.306;2023-04-12T01:14:44;5.83;;;2.17;;
4533;SDS011;2279;51.448;7.306;2023-04-12T01:17:13;2.10;;;1.90;;
4533;SDS011;2279;51.448;7.306;2023-04-12T01:25:03;4.47;;;1.83;;
4533;SDS011;2279;51.448;7.306;2023-04-12T01:27:41;5.00;;;2.00;;
4533;SDS011;2279;51.448;7.306;2023-04-12T01:30:07;3.70;;;1.80;;
4533;SDS011;2279;51.448;7.306;2023-04-12T01:32:37;4.87;;;2.00;;
4533;SDS011;2279;51.448;7.306;2023-04-12T01:35:03;2.93;;;1.93;;
4533;SDS011;2279;51.448;7.306;2023-04-12T01:37:32;2.37;;;2.00;;
4533;SDS011;2279;51.448;7.306;2023-04-12T01:39:58;1.80;;;1.70;;
4533;SDS011;2279;51.448;7.306;2023-04-12T01:42:25;3.63;;;1.80;;
4533;SDS011;2279;51.448;7.306;2023-04-12T01:44:51;6.10;;;2.30;;
4533;SDS011;2279;51.448;7.306;2023-04-12T01:47:17;7.70;;;1.93;;
4533;SDS011;2279;51.448;7.306;2023-04-12T01:49:54;3.53;;;2.10;;
4533;SDS011;2279;51.448;7.306;2023-04-12T01:52:21;5.23;;;2.20;;
4533;SDS011;2279;51.448;7.306;2023-04-12T01:54:48;9.40;;;4.20;;
4533;SDS011;2279;51.448;7.306;2023-04-12T01:57:15;4.53;;;2.13;;
4533;SDS011;2279;51.448;7.306;2023-04-12T01:59:42;4.80;;;2.30;;
4533;SDS011;2279;51.448;7.306;2023-04-12T02:02:09;12.17;;;2.43;;
4533;SDS011;2279;51.448;7.306;2023-04-12T02:04:36;3.70;;;2.20;;
4533;SDS011;2279;51.448;7.306;2023-04-12T02:07:03;2.43;;;2.20;;
4533;SDS011;2279;51.448;7.306;2023-04-12T02:09:29;7.60;;;2.30;;
4533;SDS011;2279;51.448;7.306;2023-04-12T02:11:55;2.13;;;2.00;;
4533;SDS011;2279;51.448;7.306;2023-04-12T02:14:21;4.87;;;2.10;;
4533;SDS011;2279;51.448;7.306;2023-04-12T02:16:47;7.60;;;2.97;;
4533;SDS011;2279;51.448;7.306;2023-04-12T02:19:14;8.27;;;1.97;;
4533;SDS011;2279;51.448;7.306;2023-04-12T02:21:41;5.13;;;2.27;;
4533;SDS011;2279;51.448;7.306;2023-04-12T02:24:07;5.87;;;2.07;;
4533;SDS011;2279;51.448;7.306;2023-04-12T02:26:33;3.47;;;2.23;;
4533;SDS011;2279;51.448;7.306;2023-04-12T02:29:01;7.70;;;3.00;;
4533;SDS011;2279;51.448;7.306;2023-04-12T02:31:27;4.13;;;2.10;;
4533;SDS011;2279;51.448;7.306;2023-04-12T02:33:54;5.73;;;2.77;;
4533;SDS011;2279;51.448;7.306;2023-04-12T02:36:20;4.43;;;1.97;;
4533;SDS011;2279;51.448;7.306;2023-04-12T02:38:46;4.70;;;2.40;;
4533;SDS011;2279;51.448;7.306;2023-04-12T02:41:16;5.17;;;2.40;;
4533;SDS011;2279;51.448;7.306;2023-04-12T02:43:42;2.87;;;2.67;;
4533;SDS011;2279;51.448;7.306;2023-04-12T02:46:08;5.07;;;2.27;;
4533;SDS011;2279;51.448;7.306;2023-04-12T02:48:34;5.63;;;2.50;;
4533;SDS011;2279;51.448;7.306;2023-04-12T02:51:00;8.03;;;2.10;;
4533;SDS011;2279;51.448;7.306;2023-04-12T02:53:26;6.10;;;2.33;;
4533;SDS011;2279;51.448;7.306;2023-04-12T02:55:52;4.13;;;2.37;;
4533;SDS011;2279;51.448;7.306;2023-04-12T02:58:18;4.50;;;2.30;;
4533;SDS011;2279;51.448;7.306;2023-04-12T03:00:44;5.53;;;2.60;;
4533;SDS011;2279;51.448;7.306;2023-04-12T03:03:10;3.00;;;2.17;;
4533;SDS011;2279;51.448;7.306;2023-04-12T03:05:36;4.50;;;2.00;;
4533;SDS011;2279;51.448;7.306;2023-04-12T03:08:03;4.43;;;2.00;;
4533;SDS011;2279;51.448;7.306;2023-04-12T03:10:29;6.63;;;2.00;;
4533;SDS011;2279;51.448;7.306;2023-04-12T03:12:55;6.40;;;1.83;;
4533;SDS011;2279;51.448;7.306;2023-04-12T03:15:21;2.90;;;1.70;;
4533;SDS011;2279;51.448;7.306;2023-04-12T03:17:47;3.70;;;1.80;;
4533;SDS011;2279;51.448;7.306;2023-04-12T03:20:13;2.47;;;2.13;;
4533;SDS011;2279;51.448;7.306;2023-04-12T03:22:41;2.63;;;2.20;;
4533;SDS011;2279;51.448;7.306;2023-04-12T03:25:07;7.70;;;2.27;;
4533;SDS011;2279;51.448;7.306;2023-04-12T03:27:33;3.37;;;1.93;;
4533;SDS011;2279;51.448;7.306;2023-04-12T03:30:00;3.93;;;2.00;;
4533;SDS011;2279;51.448;7.306;2023-04-12T03:32:26;2.00;;;1.80;;
4533;SDS011;2279;51.448;7.306;2023-04-12T03:34:52;6.93;;;2.50;;
4533;SDS011;2279;51.448;7.306;2023-04-12T03:37:17;4.80;;;2.27;;
4533;SDS011;2279;51.448;7.306;2023-04-12T03:39:43;3.23;;;1.80;;
4533;SDS011;2279;51.448;7.306;2023-04-12T03:42:11;2.10;;;1.90;;
4533;SDS011;2279;51.448;7.306;2023-04-12T03:44:37;3.87;;;1.50;;
4533;SDS011;2279;51.448;7.306;2023-04-12T03:47:03;3.47;;;1.80;;
4533;SDS011;2279;51.448;7.306;2023-04-12T03:49:29;4.27;;;2.60;;
4533;SDS011;2279;51.448;7.306;2023-04-12T03:51:56;3.00;;;1.57;;
4533;SDS011;2279;51.448;7.306;2023-04-12T03:54:22;4.00;;;2.10;;
4533;SDS011;2279;51.448;7.306;2023-04-12T03:56:49;2.40;;;2.20;;
4533;SDS011;2279;51.448;7.306;2023-04-12T03:59:14;1.90;;;1.80;;
4533;SDS011;2279;51.448;7.306;2023-04-12T04:01:40;1.90;;;1.70;;
4533;SDS011;2279;51.448;7.306;2023-04-12T04:04:07;4.33;;;1.60;;
4533;SDS011;2279;51.448;7.306;2023-04-12T04:06:33;3.87;;;1.90;;
4533;SDS011;2279;51.448;7.306;2023-04-12T04:08:59;3.93;;;1.83;;
4533;SDS011;2279;51.448;7.306;2023-04-12T04:11:25;2.47;;;2.17;;
4533;SDS011;2279;51.448;7.306;2023-04-12T04:13:52;2.23;;;2.00;;
4533;SDS011;2279;51.448;7.306;2023-04-12T04:16:17;2.60;;;2.07;;
4533;SDS011;2279;51.448;7.306;2023-04-12T04:18:43;3.63;;;2.50;;
4533;SDS011;2279;51.448;7.306;2023-04-12T04:21:09;3.80;;;2.60;;
4533;SDS011;2279;51.448;7.306;2023-04-12T04:23:35;5.13;;;2.03;;
4533;SDS011;2279;51.448;7.306;2023-04-12T04:26:08;2.07;;;1.83;;
4533;SDS011;2279;51.448;7.306;2023-04-12T04:28:35;3.43;;;2.30;;
4533;SDS011;2279;51.448;7.306;2023-04-12T04:31:03;4.13;;;3.00;;
4533;SDS011;2279;51.448;7.306;2023-04-12T04:33:30;3.07;;;2.40;;
4533;SDS011;2279;51.448;7.306;2023-04-12T04:35:56;7.77;;;2.00;;
4533;SDS011;2279;51.448;7.306;2023-04-12T04:38:22;7.73;;;2.37;;
4533;SDS011;2279;51.448;7.306;2023-04-12T04:40:50;1.60;;;1.50;;
4533;SDS011;2279;51.448;7.306;2023-04-12T04:43:19;2.37;;;2.17;;
4533;SDS011;2279;51.448;7.306;2023-04-12T04:45:46;2.50;;;2.30;;
4533;SDS011;2279;51.448;7.306;2023-04-12T04:48:14;3.20;;;2.20;;
4533;SDS011;2279;51.448;7.306;2023-04-12T04:50:42;2.10;;;1.90;;
4533;SDS011;2279;51.448;7.306;2023-04-12T04:53:08;2.40;;;1.93;;
4533;SDS011;2279;51.448;7.306;2023-04-12T04:55:35;3.60;;;2.03;;
4533;SDS011;2279;51.448;7.306;2023-04-12T04:58:01;2.70;;;2.13;;
4533;SDS011;2279;51.448;7.306;2023-04-12T05:00:27;2.30;;;1.73;;
4533;SDS011;2279;51.448;7.306;2023-04-12T05:02:54;2.90;;;2.20;;
4533;SDS011;2279;51.448;7.306;2023-04-12T05:05:20;1.80;;;1.70;;
4533;SDS011;2279;51.448;7.306;2023-04-12T05:07:47;3.87;;;1.80;;
4533;SDS011;2279;51.448;7.306;2023-04-12T05:10:13;3.47;;;1.83;;
4533;SDS011;2279;51.448;7.306;2023-04-12T05:12:39;2.07;;;1.87;;
4533;SDS011;2279;51.448;7.306;2023-04-12T05:15:05;2.40;;;2.03;;
4533;SDS011;2279;51.448;7.306;2023-04-12T05:17:31;2.40;;;1.77;;
4533;SDS011;2279;51.448;7.306;2023-04-12T05:20:00;4.60;;;2.17;;
4533;SDS011;2279;51.448;7.306;2023-04-12T05:22:29;4.60;;;2.00;;
4533;SDS011;2279;51.448;7.306;2023-04-12T05:24:56;3.40;;;2.10;;
4533;SDS011;2279;51.448;7.306;2023-04-12T05:27:22;2.23;;;2.07;;
4533;SDS011;2279;51.448;7.306;2023-04-12T05:29:48;1.83;;;1.43;;
4533;SDS011;2279;51.448;7.306;2023-04-12T05:32:15;1.93;;;1.73;;
4533;SDS011;2279;51.448;7.306;2023-04-12T05:34:41;1.70;;;1.60;;
4533;SDS011;2279;51.448;7.306;2023-04-12T05:37:07;2.27;;;2.07;;
4533;SDS011;2279;51.448;7.306;2023-04-12T05:39:33;3.00;;;2.10;;
4533;SDS011;2279;51.448;7.306;2023-04-12T05:41:59;2.10;;;1.90;;
4533;SDS011;2279;51.448;7.306;2023-04-12T05:44:26;2.23;;;1.90;;
4533;SDS011;2279;51.448;7.306;2023-04-12T05:46:51;6.60;;;2.80;;
4533;SDS011;2279;51.448;7.306;2023-04-12T05:49:17;3.43;;;1.70;;
4533;SDS011;2279;51.448;7.306;2023-04-12T05:51:43;2.90;;;1.70;;
4533;SDS011;2279;51.448;7.306;2023-04-12T05:54:09;2.87;;;1.73;;
4533;SDS011;2279;51.448;7.306;2023-04-12T05:56:35;4.70;;;2.27;;
4533;SDS011;2279;51.448;7.306;2023-04-12T05:59:01;3.10;;;1.80;;
4533;SDS011;2279;51.448;7.306;2023-04-12T06:01:29;1.87;;;1.77;;
4533;SDS011;2279;51.448;7.306;2023-04-12T06:03:58;2.07;;;1.87;;
4533;SDS011;2279;51.448;7.306;2023-04-12T06:06:26;2.67;;;1.97;;
4533;SDS011;2279;51.448;7.306;2023-04-12T06:08:54;1.80;;;1.70;;
4533;SDS011;2279;51.448;7.306;2023-04-12T06:11:21;4.27;;;2.00;;
4533;SDS011;2279;51.448;7.306;2023-04-12T06:13:48;1.87;;;1.77;;
4533;SDS011;2279;51.448;7.306;2023-04-12T06:16:14;2.70;;;2.00;;
4533;SDS011;2279;51.448;7.306;2023-04-12T06:18:40;2.27;;;2.17;;
4533;SDS011;2279;51.448;7.306;2023-04-12T06:21:06;1.80;;;1.70;;
4533;SDS011;2279;51.448;7.306;2023-04-12T06:23:32;6.10;;;3.47;;
4533;SDS011;2279;51.448;7.306;2023-04-12T06:25:58;3.07;;;2.17;;
4533;SDS011;2279;51.448;7.306;2023-04-12T06:28:24;3.53;;;1.87;;
4533;SDS011;2279;51.448;7.306;2023-04-12T06:30:50;2.40;;;1.60;;
4533;SDS011;2279;51.448;7.306;2023-04-12T06:33:17;2.80;;;2.37;;
4533;SDS011;2279;51.448;7.306;2023-04-12T06:35:46;1.80;;;1.70;;
4533;SDS011;2279;51.448;7.306;2023-04-12T06:38:12;1.97;;;1.77;;
4533;SDS011;2279;51.448;7.306;2023-04-12T06:40:38;1.80;;;1.70;;
4533;SDS011;2279;51.448;7.306;2023-04-12T06:43:04;3.83;;;1.70;;
4533;SDS011;2279;51.448;7.306;2023-04-12T06:45:30;1.50;;;1.40;;
4533;SDS011;2279;51.448;7.306;2023-04-12T06:47:56;1.70;;;1.53;;
4533;SDS011;2279;51.448;7.306;2023-04-12T06:50:23;1.80;;;1.70;;
4533;SDS011;2279;51.448;7.306;2023-04-12T06:52:49;1.40;;;1.30;;
4533;SDS011;2279;51.448;7.306;2023-04-12T06:55:16;1.87;;;1.70;;
4533;SDS011;2279;51.448;7.306;2023-04-12T06:57:42;1.50;;;1.40;;
4533;SDS011;2279;51.448;7.306;2023-04-12T07:00:09;1.60;;;1.50;;
4533;SDS011;2279;51.448;7.306;2023-04-12T07:02:35;1.97;;;1.87;;
4533;SDS011;2279;51.448;7.306;2023-04-12T07:05:02;1.40;;;1.30;;
4533;SDS011;2279;51.448;7.306;2023-04-12T07:07:28;1.60;;;1.50;;
4533;SDS011;2279;51.448;7.306;2023-04-12T07:09:54;1.73;;;1.63;;
4533;SDS011;2279;51.448;7.306;2023-04-12T07:12:20;2.33;;;1.47;;
4533;SDS011;2279;51.448;7.306;2023-04-12T07:14:46;1.57;;;1.47;;
4533;SDS011;2279;51.448;7.306;2023-04-12T07:17:12;1.50;;;1.40;;
4533;SDS011;2279;51.448;7.306;2023-04-12T07:19:39;1.50;;;1.40;;
4533;SDS011;2279;51.448;7.306;2023-04-12T07:22:06;1.50;;;1.40;;
4533;SDS011;2279;51.448;7.306;2023-04-12T07:24:32;1.70;;;1.60;;
4533;SDS011;2279;51.448;7.306;2023-04-12T07:26:58;1.70;;;1.50;;
4533;SDS011;2279;51.448;7.306;2023-04-12T07:29:24;1.33;;;1.23;;
4533;SDS011;2279;51.448;7.306;2023-04-12T07:31:50;1.53;;;1.43;;
4533;SDS011;2279;51.448;7.306;2023-04-12T07:34:16;1.67;;;1.47;;
4533;SDS011;2279;51.448;7.306;2023-04-12T07:36:42;4.50;;;1.30;;
4533;SDS011;2279;51.448;7.306;2023-04-12T07:39:09;1.57;;;1.47;;
4533;SDS011;2279;51.448;7.306;2023-04-12T07:41:38;1.50;;;1.40;;
4533;SDS011;2279;51.448;7.306;2023-04-12T07:44:06;1.50;;;1.23;;
4533;SDS011;2279;51.448;7.306;2023-04-12T07:46:32;1.50;;;1.40;;
4533;SDS011;2279;51.448;7.306;2023-04-12T07:48:58;1.77;;;1.30;;
4533;SDS011;2279;51.448;7.306;2023-04-12T07:51:24;1.73;;;1.63;;
4533;SDS011;2279;51.448;7.306;2023-04-12T07:53:50;1.33;;;1.23;;
4533;SDS011;2279;51.448;7.306;2023-04-12T07:56:16;1.33;;;1.20;;
4533;SDS011;2279;51.448;7.306;2023-04-12T07:58:42;1.53;;;1.20;;
4533;SDS011;2279;51.448;7.306;2023-04-12T08:01:10;1.60;;;1.50;;
4533;SDS011;2279;51.448;7.306;2023-04-12T08:03:37;1.50;;;1.40;;
4533;SDS011;2279;51.448;7.306;2023-04-12T08:06:03;1.40;;;1.30;;
4533;SDS011;2279;51.448;7.306;2023-04-12T08:08:29;4.00;;;2.13;;
4533;SDS011;2279;51.448;7.306;2023-04-12T08:10:55;1.20;;;1.10;;
4533;SDS011;2279;51.448;7.306;2023-04-12T08:13:21;1.40;;;1.30;;
4533;SDS011;2279;51.448;7.306;2023-04-12T08:15:47;1.50;;;1.10;;
4533;SDS011;2279;51.448;7.306;2023-04-12T08:18:13;1.87;;;1.20;;
4533;SDS011;2279;51.448;7.306;2023-04-12T08:20:39;2.13;;;1.47;;
4533;SDS011;2279;51.448;7.306;2023-04-12T08:23:07;3.40;;;1.20;;
4533;SDS011;2279;51.448;7.306;2023-04-12T08:25:34;1.93;;;1.20;;
4533;SDS011;2279;51.448;7.306;2023-04-12T08:28:00;4.10;;;1.60;;
4533;SDS011;2279;51.448;7.306;2023-04-12T08:30:27;1.40;;;1.30;;
4533;SDS011;2279;51.448;7.306;2023-04-12T08:32:53;1.40;;;1.30;;
4533;SDS011;2279;51.448;7.306;2023-04-12T08:35:20;1.63;;;1.23;;
4533;SDS011;2279;51.448;7.306;2023-04-12T08:37:46;1.43;;;1.33;;
4533;SDS011;2279;51.448;7.306;2023-04-12T08:40:12;1.50;;;1.40;;
4533;SDS011;2279;51.448;7.306;2023-04-12T08:42:39;1.30;;;1.20;;
4533;SDS011;2279;51.448;7.306;2023-04-12T08:45:05;1.13;;;1.03;;
4533;SDS011;2279;51.448;7.306;2023-04-12T08:47:36;2.50;;;1.40;;
4533;SDS011;2279;51.448;7.306;2023-04-12T08:50:02;1.40;;;1.30;;
4533;SDS011;2279;51.448;7.306;2023-04-12T08:52:32;1.73;;;1.20;;
4533;SDS011;2279;51.448;7.306;2023-04-12T08:55:00;2.83;;;1.50;;
4533;SDS011;2279;51.448;7.306;2023-04-12T08:57:27;1.20;;;1.10;;
4533;SDS011;2279;51.448;7.306;2023-04-12T08:59:53;1.40;;;1.23;;
4533;SDS011;2279;51.448;7.306;2023-04-12T09:02:20;1.30;;;1.20;;
4533;SDS011;2279;51.448;7.306;2023-04-12T09:04:49;1.40;;;1.30;;
4533;SDS011;2279;51.448;7.306;2023-04-12T09:07:17;1.47;;;1.37;;
4533;SDS011;2279;51.448;7.306;2023-04-12T09:09:43;1.50;;;1.40;;
4533;SDS011;2279;51.448;7.306;2023-04-12T09:12:10;1.30;;;1.20;;
4533;SDS011;2279;51.448;7.306;2023-04-12T09:14:36;1.33;;;1.23;;
4533;SDS011;2279;51.448;7.306;2023-04-12T09:17:03;1.30;;;1.20;;
4533;SDS011;2279;51.448;7.306;2023-04-12T09:19:30;1.30;;;1.20;;
4533;SDS011;2279;51.448;7.306;2023-04-12T09:21:56;1.40;;;1.30;;
4533;SDS011;2279;51.448;7.306;2023-04-12T09:24:22;1.40;;;1.30;;
4533;SDS011;2279;51.448;7.306;2023-04-12T09:26:52;2.33;;;1.50;;
4533;SDS011;2279;51.448;7.306;2023-04-12T09:29:25;1.47;;;1.27;;
4533;SDS011;2279;51.448;7.306;2023-04-12T09:32:09;1.33;;;1.20;;
4533;SDS011;2279;51.448;7.306;2023-04-12T09:34:35;2.40;;;1.50;;
4533;SDS011;2279;51.448;7.306;2023-04-12T09:37:12;1.03;;;1.03;;
4533;SDS011;2279;51.448;7.306;2023-04-12T09:39:40;1.30;;;1.20;;
4533;SDS011;2279;51.448;7.306;2023-04-12T09:42:06;1.50;;;1.30;;
4533;SDS011;2279;51.448;7.306;2023-04-12T09:44:32;1.40;;;1.30;;
4533;SDS011;2279;51.448;7.306;2023-04-12T09:46:59;2.00;;;1.50;;
4533;SDS011;2279;51.448;7.306;2023-04-12T09:52:02;2.30;;;1.40;;
4533;SDS011;2279;51.448;7.306;2023-04-12T09:54:28;1.57;;;1.47;;
4533;SDS011;2279;51.448;7.306;2023-04-12T09:56:55;1.37;;;1.27;;
4533;SDS011;2279;51.448;7.306;2023-04-12T09:59:21;1.77;;;1.60;;
4533;SDS011;2279;51.448;7.306;2023-04-12T10:01:52;1.47;;;1.37;;
4533;SDS011;2279;51.448;7.306;2023-04-12T10:04:19;1.40;;;1.30;;
4533;SDS011;2279;51.448;7.306;2023-04-12T10:06:45;2.93;;;1.73;;
4533;SDS011;2279;51.448;7.306;2023-04-12T10:09:11;1.50;;;1.40;;
4533;SDS011;2279;51.448;7.306;2023-04-12T10:11:38;1.40;;;1.30;;
4533;SDS011;2279;51.448;7.306;2023-04-12T10:14:05;1.20;;;1.10;;
4533;SDS011;2279;51.448;7.306;2023-04-12T10:16:34;1.50;;;1.40;;
4533;SDS011;2279;51.448;7.306;2023-04-12T10:19:00;1.30;;;1.20;;
4533;SDS011;2279;51.448;7.306;2023-04-12T10:21:27;1.40;;;1.30;;
4533;SDS011;2279;51.448;7.306;2023-04-12T10:23:53;1.30;;;1.20;;
4533;SDS011;2279;51.448;7.306;2023-04-12T10:26:19;2.27;;;1.40;;
4533;SDS011;2279;51.448;7.306;2023-04-12T10:28:45;1.40;;;1.30;;
4533;SDS011;2279;51.448;7.306;2023-04-12T10:31:31;1.20;;;1.10;;
4533;SDS011;2279;51.448;7.306;2023-04-12T10:34:00;1.53;;;1.33;;
4533;SDS011;2279;51.448;7.306;2023-04-12T10:36:49;1.20;;;1.10;;
4533;SDS011;2279;51.448;7.306;2023-04-12T10:39:15;1.40;;;1.30;;
4533;SDS011;2279;51.448;7.306;2023-04-12T10:44:26;2.33;;;1.40;;
4533;SDS011;2279;51.448;7.306;2023-04-12T10:46:52;4.33;;;1.93;;
4533;SDS011;2279;51.448;7.306;2023-04-12T10:49:18;1.30;;;1.20;;
4533;SDS011;2279;51.448;7.306;2023-04-12T10:52:27;1.23;;;1.13;;
4533;SDS011;2279;51.448;7.306;2023-04-12T10:54:34;0.90;;;0.90;;
4533;SDS011;2279;51.448;7.306;2023-04-12T10:57:03;1.67;;;1.30;;
4533;SDS011;2279;51.448;7.306;2023-04-12T11:02:19;1.57;;;1.47;;
4533;SDS011;2279;51.448;7.306;2023-04-12T11:05:02;1.30;;;1.20;;
4533;SDS011;2279;51.448;7.306;2023-04-12T11:07:38;1.73;;;1.63;;
4533;SDS011;2279;51.448;7.306;2023-04-12T11:10:11;3.40;;;1.20;;
4533;SDS011;2279;51.448;7.306;2023-04-12T11:12:38;1.33;;;1.20;;
4533;SDS011;2279;51.448;7.306;2023-04-12T11:15:05;3.60;;;1.20;;
4533;SDS011;2279;51.448;7.306;2023-04-12T11:17:31;1.40;;;1.30;;
4533;SDS011;2279;51.448;7.306;2023-04-12T11:19:58;1.60;;;1.50;;
4533;SDS011;2279;51.448;7.306;2023-04-12T11:22:26;1.70;;;1.60;;
4533;SDS011;2279;51.448;7.306;2023-04-12T11:24:56;2.60;;;1.67;;
4533;SDS011;2279;51.448;7.306;2023-04-12T11:27:23;1.37;;;1.27;;
4533;SDS011;2279;51.448;7.306;2023-04-12T11:29:50;1.87;;;1.50;;
4533;SDS011;2279;51.448;7.306;2023-04-12T11:32:19;1.70;;;1.60;;
4533;SDS011;2279;51.448;7.306;2023-04-12T11:34:45;2.80;;;2.50;;
4533;SDS011;2279;51.448;7.306;2023-04-12T11:37:12;3.27;;;2.30;;
4533;SDS011;2279;51.448;7.306;2023-04-12T11:39:41;2.20;;;2.10;;
4533;SDS011;2279;51.448;7.306;2023-04-12T11:42:18;2.13;;;2.03;;
4533;SDS011;2279;51.448;7.306;2023-04-12T11:44:44;2.17;;;1.80;;
4533;SDS011;2279;51.448;7.306;2023-04-12T11:47:20;2.33;;;1.40;;
4533;SDS011;2279;51.448;7.306;2023-04-12T11:49:56;2.63;;;2.43;;
4533;SDS011;2279;51.448;7.306;2023-04-12T11:52:29;4.47;;;1.80;;
4533;SDS011;2279;51.448;7.306;2023-04-12T11:54:55;2.90;;;1.47;;
4533;SDS011;2279;51.448;7.306;2023-04-12T11:57:23;1.60;;;1.50;;
4533;SDS011;2279;51.448;7.306;2023-04-12T11:59:49;1.40;;;1.30;;
4533;SDS011;2279;51.448;7.306;2023-04-12T12:02:16;1.67;;;1.57;;
4533;SDS011;2279;51.448;7.306;2023-04-12T12:04:46;2.03;;;1.10;;
4533;SDS011;2279;51.448;7.306;2023-04-12T12:07:14;1.77;;;1.50;;
4533;SDS011;2279;51.448;7.306;2023-04-12T12:09:40;1.50;;;1.40;;
4533;SDS011;2279;51.448;7.306;2023-04-12T12:12:10;1.47;;;1.30;;
4533;SDS011;2279;51.448;7.306;2023-04-12T12:14:37;2.30;;;2.20;;
4533;SDS011;2279;51.448;7.306;2023-04-12T12:17:13;3.87;;;2.20;;
4533;SDS011;2279;51.448;7.306;2023-04-12T12:19:43;2.40;;;2.27;;
4533;SDS011;2279;51.448;7.306;2023-04-12T12:22:16;3.27;;;2.97;;
4533;SDS011;2279;51.448;7.306;2023-04-12T12:27:14;2.83;;;2.60;;
4533;SDS011;2279;51.448;7.306;2023-04-12T12:29:42;7.20;;;3.03;;
4533;SDS011;2279;51.448;7.306;2023-04-12T12:32:09;2.50;;;1.90;;
4533;SDS011;2279;51.448;7.306;2023-04-12T12:34:36;1.93;;;1.77;;
4533;SDS011;2279;51.448;7.306;2023-04-12T12:37:06;2.80;;;2.00;;
4533;SDS011;2279;51.448;7.306;2023-04-12T12:39:32;3.73;;;2.23;;
4533;SDS011;2279;51.448;7.306;2023-04-12T12:41:58;5.67;;;2.57;;
4533;SDS011;2279;51.448;7.306;2023-04-12T12:44:24;6.03;;;2.13;;
4533;SDS011;2279;51.448;7.306;2023-04-12T12:46:50;3.23;;;2.10;;
4533;SDS011;2279;51.448;7.306;2023-04-12T12:49:17;2.83;;;1.80;;
4533;SDS011;2279;51.448;7.306;2023-04-12T12:51:43;4.80;;;2.03;;
4533;SDS011;2279;51.448;7.306;2023-04-12T12:54:09;3.33;;;1.70;;
4533;SDS011;2279;51.448;7.306;2023-04-12T12:56:35;2.10;;;2.00;;
4533;SDS011;2279;51.448;7.306;2023-04-12T12:59:01;10.40;;;2.40;;
4533;SDS011;2279;51.448;7.306;2023-04-12T13:01:27;3.53;;;2.10;;
4533;SDS011;2279;51.448;7.306;2023-04-12T13:03:53;4.30;;;2.40;;
4533;SDS011;2279;51.448;7.306;2023-04-12T13:06:19;5.43;;;2.87;;
4533;SDS011;2279;51.448;7.306;2023-04-12T13:08:45;5.63;;;2.43;;
4533;SDS011;2279;51.448;7.306;2023-04-12T13:11:11;3.87;;;2.20;;
4533;SDS011;2279;51.448;7.306;2023-04-12T13:13:37;6.07;;;2.83;;
4533;SDS011;2279;51.448;7.306;2023-04-12T13:16:03;3.80;;;2.27;;
4533;SDS011;2279;51.448;7.306;2023-04-12T13:18:29;2.37;;;1.70;;
4533;SDS011;2279;51.448;7.306;2023-04-12T13:20:55;2.17;;;1.90;;
4533;SDS011;2279;51.448;7.306;2023-04-12T13:23:21;5.80;;;2.17;;
4533;SDS011;2279;51.448;7.306;2023-04-12T13:25:47;4.17;;;2.53;;
4533;SDS011;2279;51.448;7.306;2023-04-12T13:28:13;4.50;;;3.47;;
4533;SDS011;2279;51.448;7.306;2023-04-12T13:30:40;6.83;;;2.27;;
4533;SDS011;2279;51.448;7.306;2023-04-12T13:33:07;2.90;;;2.70;;
4533;SDS011;2279;51.448;7.306;2023-04-12T13:35:33;2.90;;;1.93;;
4533;SDS011;2279;51.448;7.306;2023-04-12T13:37:59;4.20;;;2.00;;
4533;SDS011;2279;51.448;7.306;2023-04-12T13:40:25;10.70;;;3.00;;
4533;SDS011;2279;51.448;7.306;2023-04-12T13:42:51;3.67;;;2.50;;
4533;SDS011;2279;51.448;7.306;2023-04-12T13:45:17;3.07;;;2.73;;
4533;SDS011;2279;51.448;7.306;2023-04-12T13:47:43;2.43;;;2.13;;
4533;SDS011;2279;51.448;7.306;2023-04-12T13:50:09;7.30;;;2.40;;
4533;SDS011;2279;51.448;7.306;2023-04-12T13:52:35;8.70;;;3.00;;
4533;SDS011;2279;51.448;7.306;2023-04-12T13:55:01;11.43;;;3.27;;
4533;SDS011;2279;51.448;7.306;2023-04-12T13:57:31;4.87;;;2.70;;
4533;SDS011;2279;51.448;7.306;2023-04-12T13:59:57;5.13;;;3.00;;
4533;SDS011;2279;51.448;7.306;2023-04-12T14:02:23;6.67;;;2.90;;
4533;SDS011;2279;51.448;7.306;2023-04-12T14:04:50;4.40;;;2.53;;
4533;SDS011;2279;51.448;7.306;2023-04-12T14:07:17;3.40;;;1.73;;
4533;SDS011;2279;51.448;7.306;2023-04-12T14:09:43;3.73;;;2.50;;
4533;SDS011;2279;51.448;7.306;2023-04-12T14:12:09;5.90;;;2.57;;
4533;SDS011;2279;51.448;7.306;2023-04-12T14:14:35;5.50;;;2.37;;
4533;SDS011;2279;51.448;7.306;2023-04-12T14:17:01;4.87;;;1.87;;
4533;SDS011;2279;51.448;7.306;2023-04-12T14:19:27;4.00;;;2.27;;
4533;SDS011;2279;51.448;7.306;2023-04-12T14:21:53;2.00;;;1.80;;
4533;SDS011;2279;51.448;7.306;2023-04-12T14:24:19;5.47;;;2.20;;
4533;SDS011;2279;51.448;7.306;2023-04-12T14:26:46;5.33;;;2.40;;
4533;SDS011;2279;51.448;7.306;2023-04-12T14:29:15;3.50;;;2.03;;
4533;SDS011;2279;51.448;7.306;2023-04-12T14:31:41;4.37;;;1.90;;
4533;SDS011;2279;51.448;7.306;2023-04-12T14:34:07;5.07;;;2.33;;
4533;SDS011;2279;51.448;7.306;2023-04-12T14:36:34;2.67;;;2.30;;
4533;SDS011;2279;51.448;7.306;2023-04-12T14:39:00;11.47;;;3.40;;
4533;SDS011;2279;51.448;7.306;2023-04-12T14:41:28;3.63;;;3.13;;
4533;SDS011;2279;51.448;7.306;2023-04-12T14:43:54;10.33;;;3.80;;
4533;SDS011;2279;51.448;7.306;2023-04-12T14:46:20;5.63;;;3.00;;
4533;SDS011;2279;51.448;7.306;2023-04-12T14:48:47;5.00;;;3.40;;
4533;SDS011;2279;51.448;7.306;2023-04-12T14:51:13;4.90;;;3.73;;
4533;SDS011;2279;51.448;7.306;2023-04-12T14:53:39;7.30;;;3.80;;
4533;SDS011;2279;51.448;7.306;2023-04-12T14:56:19;9.40;;;4.13;;
4533;SDS011;2279;51.448;7.306;2023-04-12T14:58:45;7.60;;;4.70;;
4533;SDS011;2279;51.448;7.306;2023-04-12T15:01:11;12.30;;;3.40;;
4533;SDS011;2279;51.448;7.306;2023-04-12T15:03:38;6.40;;;3.80;;
4533;SDS011;2279;51.448;7.306;2023-04-12T15:06:06;5.77;;;3.80;;
4533;SDS011;2279;51.448;7.306;2023-04-12T15:08:32;10.33;;;4.23;;
4533;SDS011;2279;51.448;7.306;2023-04-12T15:11:05;7.13;;;4.07;;
4533;SDS011;2279;51.448;7.306;2023-04-12T15:13:33;17.00;;;5.10;;
4533;SDS011;2279;51.448;7.306;2023-04-12T15:15:59;8.33;;;4.50;;
4533;SDS011;2279;51.448;7.306;2023-04-12T15:18:25;6.03;;;4.43;;
4533;SDS011;2279;51.448;7.306;2023-04-12T15:20:51;8.23;;;4.70;;
4533;SDS011;2279;51.448;7.306;2023-04-12T15:23:17;8.40;;;4.80;;
4533;SDS011;2279;51.448;7.306;2023-04-12T15:25:43;8.33;;;4.97;;
4533;SDS011;2279;51.448;7.306;2023-04-12T15:28:10;5.03;;;3.90;;
4533;SDS011;2279;51.448;7.306;2023-04-12T15:30:36;17.13;;;4.37;;
4533;SDS011;2279;51.448;7.306;2023-04-12T15:33:02;9.10;;;4.10;;
4533;SDS011;2279;51.448;7.306;2023-04-12T15:35:28;6.47;;;4.00;;
4533;SDS011;2279;51.448;7.306;2023-04-12T15:37:54;11.90;;;3.30;;